sensor_id;sensor_type;location;lat;lon;timestamp;temperature;humidity
31675;DHT22;18276;45.520;11.018;2023-05-10T00:02:08;16.70;81.90
31675;DHT22;18276;45.520;11.018;2023-05-10T00:04:35;16.80;81.70
31675;DHT22;18276;45.520;11.018;2023-05-10T00:07:02;16.80;81.80
31675;DHT22;18276;45.520;11.018;2023-05-10T00:09:29;16.80;81.40
31675;DHT22;18276;45.520;11.018;2023-05-10T00:11:56;16.70;81.10
31675;DHT22;18276;45.520;11.018;2023-05-10T00:14:25;16.70;80.30
31675;DHT22;18276;45.520;11.018;2023-05-10T00:16:52;16.70;80.10
31675;DHT22;18276;45.520;11.018;2023-05-10T00:19:19;16.70;79.20
31675;DHT22;18276;45.520;11.018;2023-05-10T00:21:46;16.70;78.30
31675;DHT22;18276;45.520;11.018;2023-05-10T00:24:13;16.60;77.10
31675;DHT22;18276;45.520;11.018;2023-05-10T00:26:40;16.50;76.80
31675;DHT22;18276;45.520;11.018;2023-05-10T00:29:09;16.50;76.70
31675;DHT22;18276;45.520;11.018;2023-05-10T00:31:36;16.50;76.60
31675;DHT22;18276;45.520;11.018;2023-05-10T00:34:03;16.50;76.10
31675;DHT22;18276;45.520;11.018;2023-05-10T00:36:30;16.50;75.60
31675;DHT22;18276;45.520;11.018;2023-05-10T00:38:58;16.50;74.80
31675;DHT22;18276;45.520;11.018;2023-05-10T00:41:25;16.50;74.40
31675;DHT22;18276;45.520;11.018;2023-05-10T00:43:53;16.40;74.80
31675;DHT22;18276;45.520;11.018;2023-05-10T00:46:20;16.40;75.20
31675;DHT22;18276;45.520;11.018;2023-05-10T00:48:48;16.30;75.10
31675;DHT22;18276;45.520;11.018;2023-05-10T00:51:15;16.20;75.00
31675;DHT22;18276;45.520;11.018;2023-05-10T00:53:45;16.20;75.40
31675;DHT22;18276;45.520;11.018;2023-05-10T00:56:12;16.20;75.20
31675;DHT22;18276;45.520;11.018;2023-05-10T00:58:40;16.20;74.90
31675;DHT22;18276;45.520;11.018;2023-05-10T01:01:08;16.10;74.90
31675;DHT22;18276;45.520;11.018;2023-05-10T01:03:36;16.10;74.70
31675;DHT22;18276;45.520;11.018;2023-05-10T01:06:03;16.10;74.40
31675;DHT22;18276;45.520;11.018;2023-05-10T01:08:30;16.10;74.10
31675;DHT22;18276;45.520;11.018;2023-05-10T01:10:57;16.10;73.80
31675;DHT22;18276;45.520;11.018;2023-05-10T01:13:39;16.10;73.90
31675;DHT22;18276;45.520;11.018;2023-05-10T01:16:08;16.10;74.00
31675;DHT22;18276;45.520;11.018;2023-05-10T01:18:38;16.10;73.70
31675;DHT22;18276;45.520;11.018;2023-05-10T01:33:07;16.00;73.20
31675;DHT22;18276;45.520;11.018;2023-05-10T01:43:59;15.80;74.40
31675;DHT22;18276;45.520;11.018;2023-05-10T01:46:28;15.80;74.30
31675;DHT22;18276;45.520;11.018;2023-05-10T01:48:59;15.70;74.30
31675;DHT22;18276;45.520;11.018;2023-05-10T01:51:31;15.60;74.70
31675;DHT22;18276;45.520;11.018;2023-05-10T01:54:05;15.60;75.20
31675;DHT22;18276;45.520;11.018;2023-05-10T01:56:33;15.60;75.40
31675;DHT22;18276;45.520;11.018;2023-05-10T01:59:06;15.50;75.60
31675;DHT22;18276;45.520;11.018;2023-05-10T02:01:36;15.50;76.20
31675;DHT22;18276;45.520;11.018;2023-05-10T02:04:07;15.50;76.50
31675;DHT22;18276;45.520;11.018;2023-05-10T02:06:36;15.50;77.20
31675;DHT22;18276;45.520;11.018;2023-05-10T02:09:05;15.50;76.60
31675;DHT22;18276;45.520;11.018;2023-05-10T02:11:33;15.40;76.90
31675;DHT22;18276;45.520;11.018;2023-05-10T02:14:00;15.40;77.10
31675;DHT22;18276;45.520;11.018;2023-05-10T02:16:28;15.40;77.10
31675;DHT22;18276;45.520;11.018;2023-05-10T02:18:59;15.50;77.20
31675;DHT22;18276;45.520;11.018;2023-05-10T02:21:28;15.50;77.00
31675;DHT22;18276;45.520;11.018;2023-05-10T02:23:57;15.50;77.00
31675;DHT22;18276;45.520;11.018;2023-05-10T02:26:26;15.50;77.40
31675;DHT22;18276;45.520;11.018;2023-05-10T02:28:53;15.50;77.40
31675;DHT22;18276;45.520;11.018;2023-05-10T02:31:22;15.50;77.10
31675;DHT22;18276;45.520;11.018;2023-05-10T02:33:51;15.50;77.30
31675;DHT22;18276;45.520;11.018;2023-05-10T02:36:20;15.50;78.00
31675;DHT22;18276;45.520;11.018;2023-05-10T02:38:48;15.50;78.70
31675;DHT22;18276;45.520;11.018;2023-05-10T02:41:16;15.50;79.10
31675;DHT22;18276;45.520;11.018;2023-05-10T02:43:45;15.40;79.80
31675;DHT22;18276;45.520;11.018;2023-05-10T02:46:12;15.40;80.70
31675;DHT22;18276;45.520;11.018;2023-05-10T02:48:39;15.30;81.20
31675;DHT22;18276;45.520;11.018;2023-05-10T02:51:07;15.20;81.80
31675;DHT22;18276;45.520;11.018;2023-05-10T02:53:36;15.10;82.80
31675;DHT22;18276;45.520;11.018;2023-05-10T02:56:12;15.10;82.70
31675;DHT22;18276;45.520;11.018;2023-05-10T02:58:40;15.10;83.10
31675;DHT22;18276;45.520;11.018;2023-05-10T03:01:07;15.00;83.20
31675;DHT22;18276;45.520;11.018;2023-05-10T03:03:34;15.00;83.40
31675;DHT22;18276;45.520;11.018;2023-05-10T03:06:01;15.00;83.90
31675;DHT22;18276;45.520;11.018;2023-05-10T03:08:29;14.90;84.80
31675;DHT22;18276;45.520;11.018;2023-05-10T03:19:56;14.70;86.90
31675;DHT22;18276;45.520;11.018;2023-05-10T03:22:39;14.70;87.40
31675;DHT22;18276;45.520;11.018;2023-05-10T03:25:10;14.70;88.70
31675;DHT22;18276;45.520;11.018;2023-05-10T03:27:42;14.60;89.00
31675;DHT22;18276;45.520;11.018;2023-05-10T03:30:11;14.60;89.60
31675;DHT22;18276;45.520;11.018;2023-05-10T03:32:39;14.60;90.20
31675;DHT22;18276;45.520;11.018;2023-05-10T03:35:07;14.60;90.50
31675;DHT22;18276;45.520;11.018;2023-05-10T03:37:36;14.70;90.90
31675;DHT22;18276;45.520;11.018;2023-05-10T03:40:04;14.70;91.20
31675;DHT22;18276;45.520;11.018;2023-05-10T03:42:33;14.70;91.70
31675;DHT22;18276;45.520;11.018;2023-05-10T03:45:00;14.70;92.20
31675;DHT22;18276;45.520;11.018;2023-05-10T03:47:27;14.80;92.50
31675;DHT22;18276;45.520;11.018;2023-05-10T03:49:54;14.70;92.50
31675;DHT22;18276;45.520;11.018;2023-05-10T03:52:22;14.70;93.00
31675;DHT22;18276;45.520;11.018;2023-05-10T03:54:48;14.70;93.60
31675;DHT22;18276;45.520;11.018;2023-05-10T03:57:15;14.70;93.70
31675;DHT22;18276;45.520;11.018;2023-05-10T03:59:42;14.60;94.10
31675;DHT22;18276;45.520;11.018;2023-05-10T04:02:09;14.70;95.20
31675;DHT22;18276;45.520;11.018;2023-05-10T04:04:36;14.70;96.40
31675;DHT22;18276;45.520;11.018;2023-05-10T04:07:04;14.70;97.10
31675;DHT22;18276;45.520;11.018;2023-05-10T04:09:31;14.70;97.80
31675;DHT22;18276;45.520;11.018;2023-05-10T04:11:59;14.70;98.70
31675;DHT22;18276;45.520;11.018;2023-05-10T04:14:28;14.70;99.50
31675;DHT22;18276;45.520;11.018;2023-05-10T04:16:56;14.70;99.90
31675;DHT22;18276;45.520;11.018;2023-05-10T04:19:23;14.80;99.90
31675;DHT22;18276;45.520;11.018;2023-05-10T04:21:50;14.70;99.90
31675;DHT22;18276;45.520;11.018;2023-05-10T04:24:17;14.70;99.90
31675;DHT22;18276;45.520;11.018;2023-05-10T04:26:44;14.70;99.90
31675;DHT22;18276;45.520;11.018;2023-05-10T04:29:11;14.70;99.90
31675;DHT22;18276;45.520;11.018;2023-05-10T04:31:38;14.70;99.90
31675;DHT22;18276;45.520;11.018;2023-05-10T04:34:05;14.70;99.90
31675;DHT22;18276;45.520;11.018;2023-05-10T04:36:32;14.60;99.90
31675;DHT22;18276;45.520;11.018;2023-05-10T04:39:02;14.60;99.90
31675;DHT22;18276;45.520;11.018;2023-05-10T04:41:29;14.60;99.90
31675;DHT22;18276;45.520;11.018;2023-05-10T04:43:56;14.60;99.90
31675;DHT22;18276;45.520;11.018;2023-05-10T04:46:23;14.70;99.90
31675;DHT22;18276;45.520;11.018;2023-05-10T04:48:50;14.70;99.90
31675;DHT22;18276;45.520;11.018;2023-05-10T04:51:17;14.70;99.90
31675;DHT22;18276;45.520;11.018;2023-05-10T04:53:44;14.80;99.90
31675;DHT22;18276;45.520;11.018;2023-05-10T04:56:27;14.80;99.90
31675;DHT22;18276;45.520;11.018;2023-05-10T04:58:54;14.70;99.90
31675;DHT22;18276;45.520;11.018;2023-05-10T05:01:21;14.70;99.90
31675;DHT22;18276;45.520;11.018;2023-05-10T05:03:49;14.70;99.90
31675;DHT22;18276;45.520;11.018;2023-05-10T05:06:17;14.70;99.90
31675;DHT22;18276;45.520;11.018;2023-05-10T05:08:44;14.80;99.90
31675;DHT22;18276;45.520;11.018;2023-05-10T05:11:11;14.80;99.90
31675;DHT22;18276;45.520;11.018;2023-05-10T05:13:38;14.80;99.90
31675;DHT22;18276;45.520;11.018;2023-05-10T05:16:05;14.80;99.90
31675;DHT22;18276;45.520;11.018;2023-05-10T05:18:32;14.90;99.90
31675;DHT22;18276;45.520;11.018;2023-05-10T05:20:59;14.90;99.90
31675;DHT22;18276;45.520;11.018;2023-05-10T05:23:27;14.90;99.90
31675;DHT22;18276;45.520;11.018;2023-05-10T05:25:54;14.90;99.90
31675;DHT22;18276;45.520;11.018;2023-05-10T05:28:21;14.90;99.90
31675;DHT22;18276;45.520;11.018;2023-05-10T05:30:48;14.90;99.90
31675;DHT22;18276;45.520;11.018;2023-05-10T05:33:15;14.90;99.90
31675;DHT22;18276;45.520;11.018;2023-05-10T05:35:42;14.90;99.90
31675;DHT22;18276;45.520;11.018;2023-05-10T05:38:17;14.90;99.90
31675;DHT22;18276;45.520;11.018;2023-05-10T05:40:45;15.00;99.90
31675;DHT22;18276;45.520;11.018;2023-05-10T05:43:12;15.00;99.90
31675;DHT22;18276;45.520;11.018;2023-05-10T05:45:39;15.10;99.90
31675;DHT22;18276;45.520;11.018;2023-05-10T05:48:06;15.10;99.90
31675;DHT22;18276;45.520;11.018;2023-05-10T05:50:33;15.10;99.90
31675;DHT22;18276;45.520;11.018;2023-05-10T05:53:00;15.10;99.90
31675;DHT22;18276;45.520;11.018;2023-05-10T05:55:27;15.10;99.90
31675;DHT22;18276;45.520;11.018;2023-05-10T05:57:56;15.10;99.90
31675;DHT22;18276;45.520;11.018;2023-05-10T06:00:23;15.00;99.90
31675;DHT22;18276;45.520;11.018;2023-05-10T06:02:50;15.10;99.90
31675;DHT22;18276;45.520;11.018;2023-05-10T06:05:17;15.10;99.90
31675;DHT22;18276;45.520;11.018;2023-05-10T06:07:44;15.00;99.90
31675;DHT22;18276;45.520;11.018;2023-05-10T06:10:11;14.90;99.90
31675;DHT22;18276;45.520;11.018;2023-05-10T06:12:38;14.80;99.90
31675;DHT22;18276;45.520;11.018;2023-05-10T06:15:05;14.70;99.90
31675;DHT22;18276;45.520;11.018;2023-05-10T06:17:33;14.70;99.90
31675;DHT22;18276;45.520;11.018;2023-05-10T06:20:00;14.70;99.90
31675;DHT22;18276;45.520;11.018;2023-05-10T06:22:27;14.70;99.90
31675;DHT22;18276;45.520;11.018;2023-05-10T06:24:54;14.60;99.90
31675;DHT22;18276;45.520;11.018;2023-05-10T06:27:21;14.60;99.90
31675;DHT22;18276;45.520;11.018;2023-05-10T06:29:48;14.60;99.90
31675;DHT22;18276;45.520;11.018;2023-05-10T06:32:22;14.60;99.90
31675;DHT22;18276;45.520;11.018;2023-05-10T06:34:49;14.60;99.90
31675;DHT22;18276;45.520;11.018;2023-05-10T06:37:16;14.60;99.90
31675;DHT22;18276;45.520;11.018;2023-05-10T06:39:43;14.60;99.90
31675;DHT22;18276;45.520;11.018;2023-05-10T06:42:10;14.60;99.90
31675;DHT22;18276;45.520;11.018;2023-05-10T06:44:37;14.50;99.90
31675;DHT22;18276;45.520;11.018;2023-05-10T06:47:04;14.50;99.90
31675;DHT22;18276;45.520;11.018;2023-05-10T06:49:31;14.40;99.90
31675;DHT22;18276;45.520;11.018;2023-05-10T06:51:58;14.30;99.90
31675;DHT22;18276;45.520;11.018;2023-05-10T06:54:25;14.20;99.90
31675;DHT22;18276;45.520;11.018;2023-05-10T06:56:52;14.10;99.90
31675;DHT22;18276;45.520;11.018;2023-05-10T06:59:19;14.00;99.90
31675;DHT22;18276;45.520;11.018;2023-05-10T07:01:48;13.90;99.90
31675;DHT22;18276;45.520;11.018;2023-05-10T07:04:15;13.80;99.90
31675;DHT22;18276;45.520;11.018;2023-05-10T07:06:42;13.80;99.90
31675;DHT22;18276;45.520;11.018;2023-05-10T07:09:09;13.90;99.90
31675;DHT22;18276;45.520;11.018;2023-05-10T07:11:36;14.00;99.90
31675;DHT22;18276;45.520;11.018;2023-05-10T07:14:04;13.90;99.90
31675;DHT22;18276;45.520;11.018;2023-05-10T07:16:31;14.00;99.90
31675;DHT22;18276;45.520;11.018;2023-05-10T07:18:58;13.90;99.90
31675;DHT22;18276;45.520;11.018;2023-05-10T07:21:25;14.00;99.90
31675;DHT22;18276;45.520;11.018;2023-05-10T07:23:55;14.00;99.90
31675;DHT22;18276;45.520;11.018;2023-05-10T07:26:22;14.00;99.90
31675;DHT22;18276;45.520;11.018;2023-05-10T07:28:49;14.00;99.90
31675;DHT22;18276;45.520;11.018;2023-05-10T07:31:16;14.00;99.90
31675;DHT22;18276;45.520;11.018;2023-05-10T07:33:43;14.00;99.90
31675;DHT22;18276;45.520;11.018;2023-05-10T07:36:10;14.10;99.90
31675;DHT22;18276;45.520;11.018;2023-05-10T07:38:37;14.20;99.90
31675;DHT22;18276;45.520;11.018;2023-05-10T07:41:06;14.20;99.90
31675;DHT22;18276;45.520;11.018;2023-05-10T07:43:33;14.20;99.90
31675;DHT22;18276;45.520;11.018;2023-05-10T07:46:00;14.20;99.90
31675;DHT22;18276;45.520;11.018;2023-05-10T07:48:27;14.20;99.90
31675;DHT22;18276;45.520;11.018;2023-05-10T07:50:54;14.30;99.90
31675;DHT22;18276;45.520;11.018;2023-05-10T07:53:21;14.40;99.90
31675;DHT22;18276;45.520;11.018;2023-05-10T07:55:54;14.50;99.90
31675;DHT22;18276;45.520;11.018;2023-05-10T07:58:24;14.60;99.90
31675;DHT22;18276;45.520;11.018;2023-05-10T08:00:51;14.70;99.90
31675;DHT22;18276;45.520;11.018;2023-05-10T08:03:18;14.70;99.90
31675;DHT22;18276;45.520;11.018;2023-05-10T08:05:45;14.70;99.90
31675;DHT22;18276;45.520;11.018;2023-05-10T08:08:12;14.70;99.90
31675;DHT22;18276;45.520;11.018;2023-05-10T08:10:39;14.70;99.90
31675;DHT22;18276;45.520;11.018;2023-05-10T08:13:06;14.70;99.90
31675;DHT22;18276;45.520;11.018;2023-05-10T08:15:33;14.70;99.90
31675;DHT22;18276;45.520;11.018;2023-05-10T08:18:00;14.80;99.90
31675;DHT22;18276;45.520;11.018;2023-05-10T08:20:27;14.90;99.90
31675;DHT22;18276;45.520;11.018;2023-05-10T08:22:54;14.90;99.90
31675;DHT22;18276;45.520;11.018;2023-05-10T08:25:21;14.90;99.90
31675;DHT22;18276;45.520;11.018;2023-05-10T08:27:48;14.90;99.90
31675;DHT22;18276;45.520;11.018;2023-05-10T08:30:15;15.00;99.90
31675;DHT22;18276;45.520;11.018;2023-05-10T08:32:42;15.00;99.90
31675;DHT22;18276;45.520;11.018;2023-05-10T08:35:09;15.10;99.90
31675;DHT22;18276;45.520;11.018;2023-05-10T08:37:36;15.00;99.90
31675;DHT22;18276;45.520;11.018;2023-05-10T08:40:03;15.10;99.90
31675;DHT22;18276;45.520;11.018;2023-05-10T08:42:34;15.30;99.90
31675;DHT22;18276;45.520;11.018;2023-05-10T08:45:04;15.40;99.90
31675;DHT22;18276;45.520;11.018;2023-05-10T08:47:32;15.50;99.90
31675;DHT22;18276;45.520;11.018;2023-05-10T08:50:00;15.60;99.90
31675;DHT22;18276;45.520;11.018;2023-05-10T08:52:30;15.50;99.90
31675;DHT22;18276;45.520;11.018;2023-05-10T08:54:58;15.40;99.90
31675;DHT22;18276;45.520;11.018;2023-05-10T08:57:25;15.40;99.90
31675;DHT22;18276;45.520;11.018;2023-05-10T08:59:53;15.40;99.90
31675;DHT22;18276;45.520;11.018;2023-05-10T09:02:21;15.40;99.90
31675;DHT22;18276;45.520;11.018;2023-05-10T09:04:48;15.40;99.90
31675;DHT22;18276;45.520;11.018;2023-05-10T09:07:16;15.40;99.90
31675;DHT22;18276;45.520;11.018;2023-05-10T09:09:44;15.40;99.90
31675;DHT22;18276;45.520;11.018;2023-05-10T09:12:13;15.30;99.90
31675;DHT22;18276;45.520;11.018;2023-05-10T09:14:43;15.40;99.90
31675;DHT22;18276;45.520;11.018;2023-05-10T09:17:11;15.40;99.90
31675;DHT22;18276;45.520;11.018;2023-05-10T09:19:38;15.40;99.90
31675;DHT22;18276;45.520;11.018;2023-05-10T09:22:06;15.40;99.90
31675;DHT22;18276;45.520;11.018;2023-05-10T09:24:33;15.40;99.90
31675;DHT22;18276;45.520;11.018;2023-05-10T09:27:01;15.50;99.90
31675;DHT22;18276;45.520;11.018;2023-05-10T09:29:42;15.50;99.90
31675;DHT22;18276;45.520;11.018;2023-05-10T09:32:09;15.60;99.90
31675;DHT22;18276;45.520;11.018;2023-05-10T09:34:36;15.60;99.90
31675;DHT22;18276;45.520;11.018;2023-05-10T09:37:06;15.80;99.90
31675;DHT22;18276;45.520;11.018;2023-05-10T09:39:37;15.90;99.90
31675;DHT22;18276;45.520;11.018;2023-05-10T09:42:07;16.10;99.90
31675;DHT22;18276;45.520;11.018;2023-05-10T09:44:34;16.20;99.90
31675;DHT22;18276;45.520;11.018;2023-05-10T09:47:02;16.30;99.90
31675;DHT22;18276;45.520;11.018;2023-05-10T09:49:29;16.40;99.90
31675;DHT22;18276;45.520;11.018;2023-05-10T09:52:04;16.50;99.90
31675;DHT22;18276;45.520;11.018;2023-05-10T09:54:32;16.70;99.90
31675;DHT22;18276;45.520;11.018;2023-05-10T09:57:00;16.70;99.90
31675;DHT22;18276;45.520;11.018;2023-05-10T09:59:28;16.80;99.90
31675;DHT22;18276;45.520;11.018;2023-05-10T10:01:59;16.90;99.90
31675;DHT22;18276;45.520;11.018;2023-05-10T10:04:27;16.90;99.90
31675;DHT22;18276;45.520;11.018;2023-05-10T10:07:02;17.00;99.90
31675;DHT22;18276;45.520;11.018;2023-05-10T10:09:31;17.10;99.90
31675;DHT22;18276;45.520;11.018;2023-05-10T10:11:59;17.20;99.90
31675;DHT22;18276;45.520;11.018;2023-05-10T10:14:26;17.20;99.90
31675;DHT22;18276;45.520;11.018;2023-05-10T10:16:54;17.30;99.90
31675;DHT22;18276;45.520;11.018;2023-05-10T10:19:33;17.30;99.90
31675;DHT22;18276;45.520;11.018;2023-05-10T10:22:02;17.10;99.60
31675;DHT22;18276;45.520;11.018;2023-05-10T10:24:29;16.90;99.40
31675;DHT22;18276;45.520;11.018;2023-05-10T10:27:20;16.80;99.90
31675;DHT22;18276;45.520;11.018;2023-05-10T10:33:10;16.40;99.90
31675;DHT22;18276;45.520;11.018;2023-05-10T10:35:55;16.20;99.90
31675;DHT22;18276;45.520;11.018;2023-05-10T10:38:25;16.00;99.90
31675;DHT22;18276;45.520;11.018;2023-05-10T10:44:22;15.80;99.90
31675;DHT22;18276;45.520;11.018;2023-05-10T10:49:44;15.60;99.90
31675;DHT22;18276;45.520;11.018;2023-05-10T11:02:51;15.50;99.90
31675;DHT22;18276;45.520;11.018;2023-05-10T11:10:37;15.80;99.90
31675;DHT22;18276;45.520;11.018;2023-05-10T11:13:06;15.80;99.90
31675;DHT22;18276;45.520;11.018;2023-05-10T11:15:39;15.90;99.90
31675;DHT22;18276;45.520;11.018;2023-05-10T11:18:28;15.90;99.90
31675;DHT22;18276;45.520;11.018;2023-05-10T11:21:00;15.90;99.90
31675;DHT22;18276;45.520;11.018;2023-05-10T11:23:47;15.80;99.90
31675;DHT22;18276;45.520;11.018;2023-05-10T11:26:14;15.80;99.90
31675;DHT22;18276;45.520;11.018;2023-05-10T11:28:43;15.70;99.90
31675;DHT22;18276;45.520;11.018;2023-05-10T11:31:10;15.70;99.90
31675;DHT22;18276;45.520;11.018;2023-05-10T11:38:52;15.60;99.90
31675;DHT22;18276;45.520;11.018;2023-05-10T11:41:20;15.60;99.90
31675;DHT22;18276;45.520;11.018;2023-05-10T11:43:52;15.50;99.90
31675;DHT22;18276;45.520;11.018;2023-05-10T11:46:21;15.40;99.90
31675;DHT22;18276;45.520;11.018;2023-05-10T11:48:50;15.20;99.90
31675;DHT22;18276;45.520;11.018;2023-05-10T11:51:22;15.10;99.90
31675;DHT22;18276;45.520;11.018;2023-05-10T11:53:52;15.00;99.90
31675;DHT22;18276;45.520;11.018;2023-05-10T11:56:19;14.80;99.90
31675;DHT22;18276;45.520;11.018;2023-05-10T11:58:56;14.80;99.90
31675;DHT22;18276;45.520;11.018;2023-05-10T12:01:24;14.80;99.90
31675;DHT22;18276;45.520;11.018;2023-05-10T12:03:53;14.90;99.90
31675;DHT22;18276;45.520;11.018;2023-05-10T12:06:21;14.90;99.90
31675;DHT22;18276;45.520;11.018;2023-05-10T12:08:49;14.80;99.90
31675;DHT22;18276;45.520;11.018;2023-05-10T12:11:23;14.80;99.90
31675;DHT22;18276;45.520;11.018;2023-05-10T12:13:50;14.80;99.90
31675;DHT22;18276;45.520;11.018;2023-05-10T12:16:20;14.90;99.90
31675;DHT22;18276;45.520;11.018;2023-05-10T12:18:56;15.00;99.90
31675;DHT22;18276;45.520;11.018;2023-05-10T12:21:24;15.10;99.90
31675;DHT22;18276;45.520;11.018;2023-05-10T12:23:53;15.00;99.90
31675;DHT22;18276;45.520;11.018;2023-05-10T12:26:24;15.10;99.90
31675;DHT22;18276;45.520;11.018;2023-05-10T12:28:53;15.00;99.90
31675;DHT22;18276;45.520;11.018;2023-05-10T12:31:21;15.00;99.90
31675;DHT22;18276;45.520;11.018;2023-05-10T12:33:48;15.10;99.90
31675;DHT22;18276;45.520;11.018;2023-05-10T12:36:17;15.20;99.90
31675;DHT22;18276;45.520;11.018;2023-05-10T12:38:49;15.30;99.90
31675;DHT22;18276;45.520;11.018;2023-05-10T12:41:18;15.30;99.90
31675;DHT22;18276;45.520;11.018;2023-05-10T12:43:45;15.40;99.90
31675;DHT22;18276;45.520;11.018;2023-05-10T12:46:14;15.50;99.90
31675;DHT22;18276;45.520;11.018;2023-05-10T12:48:43;15.60;99.90
31675;DHT22;18276;45.520;11.018;2023-05-10T12:51:10;15.70;99.90
31675;DHT22;18276;45.520;11.018;2023-05-10T12:53:40;15.80;99.90
31675;DHT22;18276;45.520;11.018;2023-05-10T12:56:10;15.80;99.90
31675;DHT22;18276;45.520;11.018;2023-05-10T12:58:38;15.90;99.90
31675;DHT22;18276;45.520;11.018;2023-05-10T13:01:05;16.00;99.90
31675;DHT22;18276;45.520;11.018;2023-05-10T13:03:32;16.00;99.90
31675;DHT22;18276;45.520;11.018;2023-05-10T13:05:59;16.10;99.90
31675;DHT22;18276;45.520;11.018;2023-05-10T13:08:26;16.10;99.90
31675;DHT22;18276;45.520;11.018;2023-05-10T13:10:54;16.10;99.90
31675;DHT22;18276;45.520;11.018;2023-05-10T13:13:21;16.00;99.90
31675;DHT22;18276;45.520;11.018;2023-05-10T13:15:48;16.00;99.90
31675;DHT22;18276;45.520;11.018;2023-05-10T13:18:15;15.90;99.90
31675;DHT22;18276;45.520;11.018;2023-05-10T13:20:42;15.90;99.90
31675;DHT22;18276;45.520;11.018;2023-05-10T13:23:10;15.80;99.90
31675;DHT22;18276;45.520;11.018;2023-05-10T13:25:38;15.80;99.90
31675;DHT22;18276;45.520;11.018;2023-05-10T13:28:05;15.80;99.90
31675;DHT22;18276;45.520;11.018;2023-05-10T13:30:32;15.70;99.90
31675;DHT22;18276;45.520;11.018;2023-05-10T13:32:59;15.60;99.90
31675;DHT22;18276;45.520;11.018;2023-05-10T13:35:26;15.50;99.90
31675;DHT22;18276;45.520;11.018;2023-05-10T13:37:53;15.50;99.90
31675;DHT22;18276;45.520;11.018;2023-05-10T13:40:23;15.40;99.90
31675;DHT22;18276;45.520;11.018;2023-05-10T13:42:50;15.40;99.90
31675;DHT22;18276;45.520;11.018;2023-05-10T13:45:17;15.40;99.90
31675;DHT22;18276;45.520;11.018;2023-05-10T13:47:44;15.40;99.90
31675;DHT22;18276;45.520;11.018;2023-05-10T13:50:11;15.50;99.90
31675;DHT22;18276;45.520;11.018;2023-05-10T13:52:38;15.50;99.90
31675;DHT22;18276;45.520;11.018;2023-05-10T13:55:05;15.50;99.90
31675;DHT22;18276;45.520;11.018;2023-05-10T13:57:33;15.60;99.90
31675;DHT22;18276;45.520;11.018;2023-05-10T14:00:02;15.60;99.90
31675;DHT22;18276;45.520;11.018;2023-05-10T14:02:33;15.60;99.90
31675;DHT22;18276;45.520;11.018;2023-05-10T14:05:00;15.60;99.90
31675;DHT22;18276;45.520;11.018;2023-05-10T14:07:28;15.70;99.90
31675;DHT22;18276;45.520;11.018;2023-05-10T14:09:54;15.90;99.90
31675;DHT22;18276;45.520;11.018;2023-05-10T14:12:21;16.00;99.90
31675;DHT22;18276;45.520;11.018;2023-05-10T14:14:48;16.00;99.90
31675;DHT22;18276;45.520;11.018;2023-05-10T14:17:16;16.00;99.90
31675;DHT22;18276;45.520;11.018;2023-05-10T14:19:42;16.10;99.90
31675;DHT22;18276;45.520;11.018;2023-05-10T14:22:09;16.10;99.90
31675;DHT22;18276;45.520;11.018;2023-05-10T14:24:37;16.20;99.90
31675;DHT22;18276;45.520;11.018;2023-05-10T14:27:04;16.20;99.90
31675;DHT22;18276;45.520;11.018;2023-05-10T14:29:32;16.30;99.90
31675;DHT22;18276;45.520;11.018;2023-05-10T14:31:59;16.30;99.90
31675;DHT22;18276;45.520;11.018;2023-05-10T14:34:26;16.40;99.90
31675;DHT22;18276;45.520;11.018;2023-05-10T14:36:53;16.30;99.90
31675;DHT22;18276;45.520;11.018;2023-05-10T14:39:21;16.30;99.90
31675;DHT22;18276;45.520;11.018;2023-05-10T14:41:48;16.20;99.90
31675;DHT22;18276;45.520;11.018;2023-05-10T14:44:15;16.20;99.90
31675;DHT22;18276;45.520;11.018;2023-05-10T14:46:42;16.10;99.90
31675;DHT22;18276;45.520;11.018;2023-05-10T14:49:09;16.10;99.90
31675;DHT22;18276;45.520;11.018;2023-05-10T14:51:36;16.10;99.90
31675;DHT22;18276;45.520;11.018;2023-05-10T14:54:03;16.10;99.90
31675;DHT22;18276;45.520;11.018;2023-05-10T14:56:30;16.00;99.90
31675;DHT22;18276;45.520;11.018;2023-05-10T14:58:58;16.00;99.90
31675;DHT22;18276;45.520;11.018;2023-05-10T15:01:26;15.90;99.90
31675;DHT22;18276;45.520;11.018;2023-05-10T15:03:54;15.90;99.90
31675;DHT22;18276;45.520;11.018;2023-05-10T15:06:31;15.90;99.90
31675;DHT22;18276;45.520;11.018;2023-05-10T15:08:58;15.90;99.90
31675;DHT22;18276;45.520;11.018;2023-05-10T15:11:25;15.80;99.90
31675;DHT22;18276;45.520;11.018;2023-05-10T15:13:53;15.70;99.90
31675;DHT22;18276;45.520;11.018;2023-05-10T15:16:20;15.70;99.90
31675;DHT22;18276;45.520;11.018;2023-05-10T15:18:48;15.70;99.90
31675;DHT22;18276;45.520;11.018;2023-05-10T15:21:15;15.70;99.90
31675;DHT22;18276;45.520;11.018;2023-05-10T15:23:42;15.60;99.90
31675;DHT22;18276;45.520;11.018;2023-05-10T15:26:09;15.50;99.90
31675;DHT22;18276;45.520;11.018;2023-05-10T15:28:36;15.50;99.90
31675;DHT22;18276;45.520;11.018;2023-05-10T15:31:03;15.40;99.90
31675;DHT22;18276;45.520;11.018;2023-05-10T15:33:30;15.40;99.90
31675;DHT22;18276;45.520;11.018;2023-05-10T15:35:57;15.40;99.90
31675;DHT22;18276;45.520;11.018;2023-05-10T15:38:24;15.30;99.90
31675;DHT22;18276;45.520;11.018;2023-05-10T15:40:51;15.30;99.90
31675;DHT22;18276;45.520;11.018;2023-05-10T15:43:20;15.30;99.90
31675;DHT22;18276;45.520;11.018;2023-05-10T15:45:47;15.30;99.90
31675;DHT22;18276;45.520;11.018;2023-05-10T15:48:14;15.30;99.90
31675;DHT22;18276;45.520;11.018;2023-05-10T15:50:42;15.20;99.90
31675;DHT22;18276;45.520;11.018;2023-05-10T15:53:09;15.20;99.90
31675;DHT22;18276;45.520;11.018;2023-05-10T15:55:36;15.20;99.90
31675;DHT22;18276;45.520;11.018;2023-05-10T15:58:03;15.20;99.90
31675;DHT22;18276;45.520;11.018;2023-05-10T16:00:30;15.10;99.90
31675;DHT22;18276;45.520;11.018;2023-05-10T16:02:57;15.10;99.90
31675;DHT22;18276;45.520;11.018;2023-05-10T16:05:24;15.20;99.90
31675;DHT22;18276;45.520;11.018;2023-05-10T16:07:53;15.20;99.90
31675;DHT22;18276;45.520;11.018;2023-05-10T16:10:20;15.20;99.90
31675;DHT22;18276;45.520;11.018;2023-05-10T16:12:47;15.10;99.90
31675;DHT22;18276;45.520;11.018;2023-05-10T16:15:14;15.10;99.90
31675;DHT22;18276;45.520;11.018;2023-05-10T16:17:42;15.10;99.90
31675;DHT22;18276;45.520;11.018;2023-05-10T16:20:09;15.10;99.90
31675;DHT22;18276;45.520;11.018;2023-05-10T16:22:36;15.00;99.90